createdAt,value
2018-12-24T00:01:14.049Z,0.60
2018-12-24T00:03:41.101Z,0.50
2018-12-24T00:06:08.170Z,0.60
2018-12-24T00:08:36.978Z,0.50
2018-12-24T00:11:04.013Z,0.50
2018-12-24T00:13:31.071Z,0.60
2018-12-24T00:15:58.098Z,0.60
2018-12-24T00:18:25.170Z,0.60
2018-12-24T00:20:52.224Z,0.50
2018-12-24T00:23:19.273Z,0.50
2018-12-24T00:25:46.316Z,0.50
2018-12-24T00:28:13.376Z,0.67
2018-12-24T00:30:40.412Z,0.50
2018-12-24T00:33:07.469Z,0.50
2018-12-24T00:35:34.631Z,0.60
2018-12-24T00:38:01.680Z,0.60
2018-12-24T00:40:28.779Z,0.90
2018-12-24T00:42:55.814Z,0.63
2018-12-24T00:45:22.851Z,0.60
2018-12-24T00:47:49.896Z,0.67
2018-12-24T00:50:16.940Z,0.60
2018-12-24T00:52:44.007Z,1.10
2018-12-24T00:55:11.123Z,1.10
2018-12-24T00:57:38.172Z,0.60
2018-12-24T01:00:05.290Z,0.50
2018-12-24T01:02:32.392Z,0.47
2018-12-24T01:04:59.419Z,0.57
2018-12-24T01:07:26.481Z,0.60
2018-12-24T01:09:53.510Z,0.40
2018-12-24T01:12:24.498Z,0.50
2018-12-24T01:14:49.499Z,0.50
2018-12-24T01:17:16.554Z,0.60
2018-12-24T01:19:43.598Z,0.50
2018-12-24T01:22:10.644Z,0.50
2018-12-24T01:24:37.694Z,0.50
2018-12-24T01:27:04.733Z,0.60
2018-12-24T01:29:31.782Z,0.60
2018-12-24T01:31:58.821Z,0.63
2018-12-24T01:34:25.881Z,0.50
2018-12-24T01:36:52.914Z,0.50
2018-12-24T01:39:20.207Z,0.53
2018-12-24T01:41:47.217Z,0.60
2018-12-24T01:44:14.291Z,0.50
2018-12-24T01:46:41.317Z,0.60
2018-12-24T01:49:08.352Z,0.60
2018-12-24T01:51:35.420Z,0.60
2018-12-24T01:54:02.538Z,0.50
2018-12-24T01:56:29.586Z,0.50
2018-12-24T01:58:56.615Z,0.50
2018-12-24T02:01:23.700Z,0.50
2018-12-24T02:03:50.756Z,0.60
2018-12-24T02:06:17.809Z,0.50
2018-12-24T02:08:44.867Z,0.50
2018-12-24T02:11:11.937Z,0.53
2018-12-24T02:13:39.006Z,0.50
2018-12-24T02:16:06.164Z,0.50
2018-12-24T02:18:33.192Z,0.50
2018-12-24T02:21:00.246Z,0.60
2018-12-24T02:23:27.243Z,0.50
2018-12-24T02:25:54.320Z,0.60
2018-12-24T02:28:21.374Z,0.53
2018-12-24T02:30:48.414Z,0.50
2018-12-24T02:33:15.447Z,0.70
2018-12-24T02:35:42.605Z,0.57
2018-12-24T02:38:09.668Z,0.80
2018-12-24T02:40:36.735Z,0.40
2018-12-24T02:43:03.793Z,0.50
2018-12-24T02:45:30.832Z,0.50
2018-12-24T02:47:57.866Z,0.53
2018-12-24T02:50:24.945Z,0.70
2018-12-24T02:52:52.002Z,0.50
2018-12-24T02:55:19.052Z,0.50
2018-12-24T02:57:46.104Z,0.50
2018-12-24T03:00:13.179Z,0.50
2018-12-24T03:02:40.226Z,0.50
2018-12-24T03:05:07.278Z,0.53
2018-12-24T03:07:34.337Z,0.50
2018-12-24T03:10:01.399Z,0.50
2018-12-24T03:12:28.467Z,0.50
2018-12-24T03:14:55.515Z,0.50
2018-12-24T03:17:22.568Z,0.60
2018-12-24T03:19:49.632Z,0.70
2018-12-24T03:22:16.676Z,0.50
2018-12-24T03:24:43.757Z,0.50
2018-12-24T03:27:10.833Z,0.60
2018-12-24T03:29:37.901Z,0.60
2018-12-24T03:32:04.973Z,0.50
2018-12-24T03:34:32.030Z,0.50
2018-12-24T03:36:59.085Z,0.50
2018-12-24T03:39:26.166Z,0.50
2018-12-24T03:41:53.222Z,0.60
2018-12-24T03:44:20.287Z,0.50
2018-12-24T03:46:47.358Z,0.50
2018-12-24T03:49:14.451Z,0.50
2018-12-24T03:51:41.536Z,1.63
2018-12-24T03:54:08.611Z,1.23
2018-12-24T03:56:35.704Z,0.80
2018-12-24T03:59:02.765Z,0.65
2018-12-24T04:01:29.837Z,0.65
2018-12-24T04:03:56.884Z,0.70
2018-12-24T04:06:23.939Z,0.68
2018-12-24T04:08:51.004Z,0.68
2018-12-24T04:11:18.036Z,0.50
2018-12-24T04:13:45.108Z,0.50
2018-12-24T04:16:12.165Z,0.50
2018-12-24T04:18:39.241Z,0.50
2018-12-24T04:24:09.226Z,0.60
2018-12-24T04:26:36.295Z,0.60
2018-12-24T04:29:03.347Z,0.40
2018-12-24T04:31:30.420Z,0.60
2018-12-24T04:33:57.493Z,0.60
2018-12-24T04:36:24.576Z,0.60
2018-12-24T04:38:51.656Z,0.60
2018-12-24T04:41:18.748Z,0.50
2018-12-24T04:43:45.821Z,0.72
2018-12-24T04:46:12.876Z,0.60
2018-12-24T04:48:39.940Z,0.80
2018-12-24T04:51:07.014Z,0.70
2018-12-24T04:53:34.100Z,0.60
2018-12-24T04:56:01.170Z,0.70
2018-12-24T04:58:28.255Z,0.50
2018-12-24T05:00:55.327Z,0.82
2018-12-24T05:03:22.680Z,0.55
2018-12-24T05:05:49.745Z,0.60
2018-12-24T05:08:16.800Z,0.55
2018-12-24T05:10:43.870Z,0.80
2018-12-24T05:13:10.922Z,0.57
2018-12-24T05:15:37.988Z,0.50
2018-12-24T05:18:05.045Z,0.40
2018-12-24T05:20:32.166Z,0.50
2018-12-24T05:22:59.223Z,0.50
2018-12-24T05:25:26.305Z,0.70
2018-12-24T05:27:53.360Z,0.40
2018-12-24T05:30:20.419Z,0.50
2018-12-24T05:32:47.476Z,0.60
2018-12-24T05:35:14.519Z,0.40
2018-12-24T05:37:41.577Z,0.40
2018-12-24T05:40:08.611Z,0.40
2018-12-24T05:42:41.547Z,0.60
2018-12-24T05:46:10.346Z,0.60
2018-12-24T05:48:37.389Z,0.47
2018-12-24T05:51:04.411Z,0.47
2018-12-24T05:53:31.473Z,0.50
2018-12-24T05:55:58.520Z,0.55
2018-12-24T05:58:25.597Z,0.90
2018-12-24T06:00:52.743Z,0.62
2018-12-24T06:03:19.777Z,0.70
2018-12-24T06:09:30.869Z,0.50
2018-12-24T06:11:57.918Z,0.60
2018-12-24T06:14:24.992Z,0.53
2018-12-24T06:16:52.032Z,0.50
2018-12-24T06:19:19.101Z,0.70
2018-12-24T06:21:46.176Z,0.50
2018-12-24T06:24:13.267Z,0.40
2018-12-24T06:26:40.339Z,0.40
2018-12-24T06:29:07.380Z,0.40
2018-12-24T06:31:35.791Z,0.62
2018-12-24T06:34:02.929Z,0.55
2018-12-24T06:36:29.993Z,0.50
2018-12-24T06:38:57.043Z,0.50
2018-12-24T06:41:24.124Z,0.50
2018-12-24T06:43:51.175Z,0.65
2018-12-24T06:46:18.237Z,0.50
2018-12-24T06:48:45.298Z,0.50
2018-12-24T06:51:12.352Z,0.50
2018-12-24T06:53:39.433Z,0.50
2018-12-24T06:56:06.500Z,0.50
2018-12-24T06:58:33.559Z,0.47
2018-12-24T07:01:00.629Z,0.47
2018-12-24T07:03:27.696Z,0.50
2018-12-24T07:05:54.750Z,0.50
2018-12-24T07:08:21.813Z,0.60
2018-12-24T07:10:48.884Z,0.60
2018-12-24T07:13:15.922Z,0.60
2018-12-24T07:15:42.995Z,0.50
2018-12-24T07:18:10.049Z,0.40
2018-12-24T07:20:37.117Z,0.70
2018-12-24T07:23:06.823Z,0.70
2018-12-24T07:25:33.892Z,0.70
2018-12-24T07:28:00.956Z,0.75
2018-12-24T07:30:28.036Z,0.80
2018-12-24T07:32:55.115Z,0.60
2018-12-24T07:35:22.168Z,0.72
2018-12-24T07:37:49.251Z,1.20
2018-12-24T07:40:16.291Z,1.05
2018-12-24T07:42:43.363Z,0.90
2018-12-24T07:45:10.404Z,0.90
2018-12-24T07:47:37.473Z,0.90
2018-12-24T07:50:05.118Z,0.88
2018-12-24T07:52:32.146Z,0.85
2018-12-24T07:54:59.216Z,0.90
2018-12-24T07:57:26.257Z,0.98
2018-12-24T07:59:53.307Z,0.72
2018-12-24T08:02:20.369Z,1.00
2018-12-24T08:04:47.435Z,1.05
2018-12-24T08:07:14.465Z,1.02
2018-12-24T08:09:41.522Z,1.20
2018-12-24T08:12:08.566Z,1.10
2018-12-24T08:14:35.648Z,1.17
2018-12-24T08:17:02.687Z,1.57
2018-12-24T08:19:29.736Z,1.70
2018-12-24T08:21:56.847Z,1.80
2018-12-24T08:24:23.909Z,1.32
2018-12-24T08:26:53.402Z,1.50
2018-12-24T08:29:19.913Z,1.50
2018-12-24T08:31:46.982Z,1.40
2018-12-24T08:34:14.062Z,2.25
2018-12-24T08:36:41.131Z,2.15
2018-12-24T08:39:08.157Z,3.70
2018-12-24T08:41:35.196Z,5.15
2018-12-24T08:44:02.248Z,2.15
2018-12-24T08:46:29.300Z,1.70
2018-12-24T08:48:56.371Z,1.55
2018-12-24T08:51:23.431Z,1.70
2018-12-24T08:53:50.491Z,1.60
2018-12-24T08:56:17.541Z,1.65
2018-12-24T08:58:44.608Z,1.85
2018-12-24T09:01:11.649Z,1.90
2018-12-24T09:03:38.713Z,1.90
2018-12-24T09:06:05.805Z,1.62
2018-12-24T09:08:32.885Z,1.85
2018-12-24T09:10:59.975Z,1.80
2018-12-24T09:13:26.989Z,1.70
2018-12-24T09:15:54.074Z,1.82
2018-12-24T09:18:21.100Z,1.90
2018-12-24T09:20:52.648Z,2.15
2018-12-24T09:23:17.227Z,2.02
2018-12-24T09:25:44.268Z,1.82
2018-12-24T09:28:11.327Z,1.92
2018-12-24T09:30:43.444Z,2.37
2018-12-24T09:33:10.521Z,2.30
2018-12-24T09:35:37.563Z,2.62
2018-12-24T09:38:04.681Z,2.20
2018-12-24T09:40:31.724Z,2.50
2018-12-24T09:42:58.802Z,2.25
2018-12-24T09:45:25.873Z,2.52
2018-12-24T09:47:52.961Z,2.67
2018-12-24T09:50:20.033Z,2.72
2018-12-24T09:52:47.094Z,2.10
2018-12-24T09:55:16.255Z,2.58
2018-12-24T09:57:43.319Z,2.35
2018-12-24T10:00:13.752Z,2.33
2018-12-24T10:02:44.257Z,2.10
2018-12-24T10:05:13.567Z,1.80
2018-12-24T10:07:41.113Z,1.85
2018-12-24T10:10:10.970Z,2.05
2018-12-24T10:12:38.045Z,2.20
2018-12-24T10:17:34.199Z,1.90
2018-12-24T10:20:01.266Z,1.90
2018-12-24T10:22:28.359Z,1.90
2018-12-24T10:24:55.433Z,2.08
2018-12-24T10:27:22.484Z,1.70
2018-12-24T10:29:49.558Z,2.15
2018-12-24T10:32:16.580Z,2.25
2018-12-24T10:34:43.688Z,2.25
2018-12-24T10:37:53.442Z,1.80
2018-12-24T10:40:20.503Z,2.17
2018-12-24T10:42:47.582Z,1.95
2018-12-24T10:45:16.736Z,2.37
2018-12-24T10:47:43.607Z,1.90
2018-12-24T10:50:10.681Z,2.05
2018-12-24T10:52:37.729Z,1.90
2018-12-24T10:55:04.801Z,1.98
2018-12-24T10:57:31.855Z,1.70
2018-12-24T10:59:59.307Z,1.90
2018-12-24T11:02:26.378Z,1.92
2018-12-24T11:04:53.441Z,1.92
2018-12-24T11:07:20.504Z,1.60
2018-12-24T11:09:48.654Z,1.60
2018-12-24T11:12:15.767Z,2.00
2018-12-24T11:14:42.852Z,1.80
2018-12-24T11:17:09.916Z,2.00
2018-12-24T11:19:36.958Z,1.98
2018-12-24T11:22:04.024Z,1.80
2018-12-24T11:24:31.115Z,2.15
2018-12-24T11:26:58.222Z,1.85
2018-12-24T11:29:25.285Z,1.80
2018-12-24T11:31:52.348Z,1.70
2018-12-24T11:34:19.477Z,1.57
2018-12-24T11:36:46.568Z,1.70
2018-12-24T11:39:13.689Z,1.10
2018-12-24T11:41:40.770Z,1.30
2018-12-24T11:44:07.855Z,1.50
2018-12-24T11:46:34.971Z,1.30
2018-12-24T11:49:02.342Z,1.40
2018-12-24T11:51:29.671Z,1.65
2018-12-24T11:53:56.709Z,1.50
2018-12-24T11:56:23.779Z,1.95
2018-12-24T11:58:50.855Z,1.40
2018-12-24T12:01:17.924Z,2.00
2018-12-24T12:03:44.998Z,1.60
2018-12-24T12:06:19.527Z,2.27
2018-12-24T12:08:41.141Z,2.42
2018-12-24T12:11:08.238Z,1.42
2018-12-24T12:13:35.310Z,1.37
2018-12-24T12:16:02.393Z,0.90
2018-12-24T12:18:29.469Z,1.25
2018-12-24T12:20:56.533Z,1.15
2018-12-24T12:23:23.567Z,1.37
2018-12-24T12:25:50.629Z,1.30
2018-12-24T12:28:17.716Z,1.57
2018-12-24T12:30:44.814Z,2.47
2018-12-24T12:33:11.877Z,1.82
2018-12-24T12:35:38.954Z,2.30
2018-12-24T12:38:06.047Z,1.80
2018-12-24T12:40:33.097Z,1.90
2018-12-24T12:43:00.206Z,2.02
2018-12-24T12:45:27.311Z,1.95
2018-12-24T12:47:54.417Z,1.77
2018-12-24T12:50:21.494Z,1.70
2018-12-24T12:52:48.602Z,2.02
2018-12-24T12:55:15.672Z,2.05
2018-12-24T12:57:42.731Z,1.65
2018-12-24T13:00:09.802Z,1.90
2018-12-24T13:02:36.870Z,2.12
2018-12-24T13:05:04.416Z,2.58
2018-12-24T13:07:31.777Z,1.77
2018-12-24T13:09:58.846Z,1.37
2018-12-24T13:12:25.974Z,1.60
2018-12-24T13:14:53.060Z,1.80
2018-12-24T13:17:20.137Z,1.75
2018-12-24T13:19:47.198Z,1.98
2018-12-24T13:22:14.316Z,1.80
2018-12-24T13:24:41.416Z,6.10
2018-12-24T13:27:08.559Z,2.00
2018-12-24T13:29:35.641Z,5.25
2018-12-24T13:32:02.716Z,4.83
2018-12-24T13:34:29.808Z,4.08
2018-12-24T13:36:56.888Z,2.50
2018-12-24T13:39:23.986Z,4.20
2018-12-24T13:45:48.941Z,3.90
2018-12-24T13:48:15.995Z,1.85
2018-12-24T13:50:44.782Z,1.70
2018-12-24T13:53:11.873Z,2.00
2018-12-24T13:55:38.970Z,2.05
2018-12-24T13:58:06.083Z,1.98
2018-12-24T14:00:33.166Z,2.42
2018-12-24T14:03:00.258Z,2.58
2018-12-24T14:05:27.324Z,2.20
2018-12-24T14:07:54.491Z,2.30
2018-12-24T14:10:21.543Z,1.95
2018-12-24T14:12:48.620Z,1.30
2018-12-24T14:15:15.762Z,1.40
2018-12-24T14:17:42.830Z,1.60
2018-12-24T14:20:09.915Z,1.50
2018-12-24T14:22:36.990Z,1.37
2018-12-24T14:25:04.115Z,1.30
2018-12-24T14:27:31.216Z,1.45
2018-12-24T14:29:58.307Z,1.50
2018-12-24T14:32:25.397Z,1.62
2018-12-24T14:34:52.463Z,1.67
2018-12-24T14:37:19.574Z,1.50
2018-12-24T14:39:46.885Z,1.80
2018-12-24T14:42:14.055Z,2.10
2018-12-24T14:44:41.114Z,1.95
2018-12-24T14:47:08.181Z,2.30
2018-12-24T14:49:35.266Z,1.45
2018-12-24T14:52:02.325Z,1.50
2018-12-24T14:54:29.407Z,1.62
2018-12-24T14:56:56.476Z,1.98
2018-12-24T14:59:23.631Z,1.65
2018-12-24T15:01:50.749Z,2.40
2018-12-24T15:04:17.819Z,1.60
2018-12-24T15:06:44.898Z,1.72
2018-12-24T15:09:11.980Z,1.20
2018-12-24T15:11:39.052Z,1.90
2018-12-24T15:14:06.146Z,1.95
2018-12-24T15:16:34.825Z,2.20
2018-12-24T15:19:02.359Z,1.80
2018-12-24T15:21:29.477Z,1.72
2018-12-24T15:23:56.587Z,1.60
2018-12-24T15:26:23.689Z,1.95
2018-12-24T15:28:50.858Z,1.70
2018-12-24T15:31:17.935Z,2.30
2018-12-24T15:33:45.001Z,3.72
2018-12-24T15:36:12.048Z,19.35
2018-12-24T15:38:39.137Z,1.50
2018-12-24T15:41:06.211Z,1.67
2018-12-24T15:43:33.282Z,1.32
2018-12-24T15:46:00.367Z,2.12
2018-12-24T15:48:27.410Z,1.32
2018-12-24T15:50:54.467Z,1.45
2018-12-24T15:53:21.538Z,1.50
2018-12-24T15:55:48.640Z,0.90
2018-12-24T15:58:15.700Z,1.32
2018-12-24T16:00:42.767Z,1.10
2018-12-24T16:03:09.846Z,1.30
2018-12-24T16:05:36.890Z,1.35
2018-12-24T16:08:03.984Z,2.25
2018-12-24T16:10:31.043Z,1.45
2018-12-24T16:12:58.138Z,1.47
2018-12-24T16:15:26.039Z,1.95
2018-12-24T16:17:53.130Z,1.65
2018-12-24T16:20:20.198Z,1.95
2018-12-24T16:22:47.283Z,1.70
2018-12-24T16:25:14.354Z,1.87
2018-12-24T16:27:41.405Z,1.77
2018-12-24T16:30:08.789Z,1.95
2018-12-24T16:32:35.830Z,1.30
2018-12-24T16:35:02.926Z,2.02
2018-12-24T16:37:29.979Z,1.80
2018-12-24T16:39:57.062Z,1.92
2018-12-24T16:42:24.100Z,40.70
2018-12-24T16:44:51.179Z,8.00
2018-12-24T16:47:18.234Z,3.17
2018-12-24T16:49:45.367Z,4.08
2018-12-24T16:52:12.488Z,6.08
2018-12-24T16:54:39.506Z,2.70
2018-12-24T16:57:06.597Z,3.27
2018-12-24T16:59:33.631Z,2.77
2018-12-24T17:02:00.695Z,2.85
2018-12-24T17:04:27.771Z,3.05
2018-12-24T17:06:54.809Z,2.70
2018-12-24T17:09:21.944Z,2.40
2018-12-24T17:11:48.989Z,3.10
2018-12-24T17:14:16.067Z,2.30
2018-12-24T17:16:43.101Z,2.40
2018-12-24T17:19:10.179Z,2.62
2018-12-24T17:21:37.235Z,2.45
2018-12-24T17:24:04.314Z,2.20
2018-12-24T17:26:31.407Z,2.58
2018-12-24T17:28:58.472Z,2.05
2018-12-24T17:31:25.530Z,2.60
2018-12-24T17:33:52.569Z,2.10
2018-12-24T17:36:19.963Z,1.98
2018-12-24T17:38:47.014Z,2.50
2018-12-24T17:41:14.095Z,2.20
2018-12-24T17:43:41.118Z,2.50
2018-12-24T17:46:08.175Z,2.75
2018-12-24T17:48:35.366Z,2.80
2018-12-24T17:51:02.421Z,3.05
2018-12-24T17:53:29.484Z,2.90
2018-12-24T17:55:57.032Z,3.42
2018-12-24T17:58:24.102Z,3.10
2018-12-24T18:00:51.134Z,3.85
2018-12-24T18:03:18.180Z,3.85
2018-12-24T18:05:45.239Z,3.92
2018-12-24T18:08:12.292Z,3.62
2018-12-24T18:10:39.361Z,3.35
2018-12-24T18:13:06.408Z,3.40
2018-12-24T18:15:33.482Z,3.50
2018-12-24T18:18:00.534Z,3.62
2018-12-24T18:20:27.665Z,4.00
2018-12-24T18:22:54.737Z,5.53
2018-12-24T18:25:21.766Z,4.20
2018-12-24T18:27:48.954Z,3.75
2018-12-24T18:30:16.037Z,3.92
2018-12-24T18:32:43.102Z,3.30
2018-12-24T18:35:10.155Z,3.95
2018-12-24T18:37:37.244Z,3.37
2018-12-24T18:40:04.360Z,4.00
2018-12-24T18:42:31.444Z,4.42
2018-12-24T18:44:58.494Z,3.75
2018-12-24T18:47:32.970Z,4.30
2018-12-24T18:49:54.499Z,4.25
2018-12-24T18:52:21.559Z,5.75
2018-12-24T18:54:48.597Z,5.25
2018-12-24T18:57:15.650Z,4.47
2018-12-24T18:59:42.726Z,4.12
2018-12-24T19:02:09.783Z,5.12
2018-12-24T19:04:38.368Z,5.20
2018-12-24T19:07:05.444Z,5.22
2018-12-24T19:09:32.521Z,4.85
2018-12-24T19:11:59.571Z,5.20
2018-12-24T19:14:26.628Z,5.62
2018-12-24T19:16:53.686Z,4.60
2018-12-24T19:19:20.728Z,4.60
2018-12-24T19:21:47.790Z,4.22
2018-12-24T19:24:14.860Z,4.90
2018-12-24T19:26:41.924Z,4.95
2018-12-24T19:29:09.041Z,5.10
2018-12-24T19:31:36.109Z,6.50
2018-12-24T19:34:03.178Z,5.40
2018-12-24T19:36:30.261Z,5.03
2018-12-24T19:39:00.689Z,5.22
2018-12-24T19:41:27.745Z,5.75
2018-12-24T19:43:54.805Z,5.50
2018-12-24T19:46:21.892Z,6.17
2018-12-24T19:48:48.982Z,6.25
2018-12-24T19:51:16.152Z,5.42
2018-12-24T19:53:43.305Z,5.70
2018-12-24T19:56:10.386Z,6.10
2018-12-24T19:58:37.458Z,6.55
2018-12-24T20:01:04.524Z,6.50
2018-12-24T20:03:31.626Z,6.25
2018-12-24T20:05:58.700Z,6.97
2018-12-24T20:08:25.786Z,6.35
2018-12-24T20:10:52.875Z,6.37
2018-12-24T20:13:19.998Z,7.20
2018-12-24T20:15:47.102Z,6.53
2018-12-24T20:18:14.196Z,7.85
2018-12-24T20:20:41.300Z,7.05
2018-12-24T20:23:08.395Z,7.10
2018-12-24T20:25:35.542Z,7.78
2018-12-24T20:28:02.672Z,6.30
2018-12-24T20:30:29.794Z,7.22
2018-12-24T20:32:56.876Z,5.58
2018-12-24T20:35:23.984Z,6.22
2018-12-24T20:37:51.082Z,8.58
2018-12-24T20:40:18.183Z,23.10
2018-12-24T20:42:45.273Z,8.33
2018-12-24T20:45:12.399Z,7.83
2018-12-24T20:47:39.548Z,7.47
2018-12-24T20:50:06.704Z,9.25
2018-12-24T20:52:33.912Z,14.05
2018-12-24T20:55:01.043Z,7.90
2018-12-24T20:57:28.164Z,6.55
2018-12-24T20:59:55.322Z,8.53
2018-12-24T21:02:22.458Z,6.53
2018-12-24T21:04:49.622Z,8.10
2018-12-24T21:07:16.801Z,6.15
2018-12-24T21:09:43.876Z,6.20
2018-12-24T21:12:10.996Z,6.80
2018-12-24T21:14:38.228Z,6.22
2018-12-24T21:17:05.379Z,6.40
2018-12-24T21:19:32.495Z,6.15
2018-12-24T21:21:59.663Z,6.80
2018-12-24T21:24:26.884Z,6.10
2018-12-24T21:26:54.310Z,6.58
2018-12-24T21:29:21.475Z,6.45
2018-12-24T21:31:48.600Z,7.30
2018-12-24T21:34:15.740Z,9.78
2018-12-24T21:36:42.901Z,8.25
2018-12-24T21:39:10.148Z,9.08
2018-12-24T21:41:37.236Z,8.20
2018-12-24T21:44:04.311Z,7.30
2018-12-24T21:46:31.418Z,8.18
2018-12-24T21:48:58.575Z,7.75
2018-12-24T21:51:25.702Z,8.73
2018-12-24T21:53:52.917Z,7.80
2018-12-24T21:56:20.039Z,8.20
2018-12-24T21:58:47.110Z,8.30
2018-12-24T22:01:14.231Z,8.18
2018-12-24T22:03:41.351Z,10.00
2018-12-24T22:06:08.504Z,8.30
2018-12-24T22:08:35.612Z,7.67
2018-12-24T22:11:02.714Z,8.15
2018-12-24T22:13:29.837Z,7.75
2018-12-24T22:15:56.974Z,7.45
2018-12-24T22:18:32.026Z,6.53
2018-12-24T22:20:53.155Z,6.40
2018-12-24T22:23:20.277Z,7.75
2018-12-24T22:25:47.404Z,6.72
2018-12-24T22:28:16.653Z,6.87
2018-12-24T22:30:43.599Z,7.03
2018-12-24T22:33:10.718Z,7.05
2018-12-24T22:35:37.811Z,6.25
2018-12-24T22:38:04.991Z,6.87
2018-12-24T22:40:32.237Z,7.03
2018-12-24T22:42:59.380Z,7.30
2018-12-24T22:45:26.507Z,7.15
2018-12-24T22:47:53.652Z,7.20
2018-12-24T22:50:21.587Z,7.37
2018-12-24T22:52:48.680Z,7.22
2018-12-24T22:55:15.788Z,7.58
2018-12-24T22:57:42.925Z,6.20
2018-12-24T23:00:13.617Z,6.20
2018-12-24T23:02:40.723Z,7.37
2018-12-24T23:05:07.847Z,7.83
2018-12-24T23:07:34.973Z,7.53
2018-12-24T23:10:02.075Z,7.03
2018-12-24T23:12:29.173Z,7.70
2018-12-24T23:14:56.223Z,7.62
2018-12-24T23:17:23.290Z,7.40
2018-12-24T23:19:52.087Z,7.45
2018-12-24T23:22:19.170Z,8.65
2018-12-24T23:24:46.270Z,8.58
2018-12-24T23:27:13.342Z,7.45
2018-12-24T23:29:40.491Z,7.62
2018-12-24T23:32:07.533Z,8.48
2018-12-24T23:34:34.622Z,8.23
2018-12-24T23:37:01.694Z,8.60
2018-12-24T23:39:28.789Z,8.60
2018-12-24T23:41:55.845Z,7.65
2018-12-24T23:44:22.902Z,8.43
2018-12-24T23:46:49.983Z,8.40
2018-12-24T23:49:17.042Z,8.58
2018-12-24T23:51:44.135Z,8.98
2018-12-24T23:54:11.207Z,9.13
2018-12-24T23:56:38.277Z,9.13
2018-12-24T23:59:05.371Z,8.23
